Time;durP1;ratioP1;P1;durP2;ratioP2;P2;SDS_P1;SDS_P2;PMS_P1;PMS_P2;Temp;Humidity;BMP_temperature;BMP_pressure;BME280_temperature;BME280_humidity;BME280_pressure;Samples;Min_cycle;Max_cycle;Signal;HPM_P1;HPM_P2
2022/05/21 00:00:12;;;;;;;5.53;2.40;;;12.50;80.60;;;;;;5073820;28;20683;-66
2022/05/21 00:02:38;;;;;;;4.57;2.70;;;12.60;77.80;;;;;;5074123;28;20571;-67
2022/05/21 00:05:04;;;;;;;6.63;2.70;;;12.60;77.20;;;;;;5072726;28;20196;-67
2022/05/21 00:07:30;;;;;;;6.53;2.70;;;12.50;78.50;;;;;;5074060;28;20180;-66
2022/05/21 00:09:56;;;;;;;5.57;2.63;;;12.50;78.50;;;;;;5073414;28;20177;-67
2022/05/21 00:12:21;;;;;;;3.93;2.43;;;12.50;80.20;;;;;;5073821;28;20169;-66
2022/05/21 00:14:47;;;;;;;7.23;2.40;;;12.50;81.40;;;;;;5073974;28;20215;-66
2022/05/21 00:17:13;;;;;;;9.00;2.60;;;12.50;82.10;;;;;;5073934;28;20199;-67
2022/05/21 00:19:38;;;;;;;3.50;2.40;;;12.40;80.20;;;;;;5073788;28;20524;-67
2022/05/21 00:22:04;;;;;;;6.20;2.53;;;12.40;80.20;;;;;;5073735;28;20290;-66
2022/05/21 00:24:30;;;;;;;3.07;2.30;;;12.40;84.30;;;;;;5073371;28;20527;-66
2022/05/21 00:26:55;;;;;;;5.47;2.60;;;12.30;85.30;;;;;;5073540;28;20589;-66
2022/05/21 00:29:23;;;;;;;4.13;2.17;;;12.30;85.30;;;;;;5073618;28;20176;-66
2022/05/21 00:31:49;;;;;;;5.50;2.60;;;12.30;83.90;;;;;;5073646;28;20179;-67
2022/05/21 00:34:15;;;;;;;4.37;2.30;;;12.30;83.50;;;;;;5073441;28;20246;-64
2022/05/21 00:36:41;;;;;;;4.50;2.23;;;12.40;83.60;;;;;;5073543;28;20181;-65
2022/05/21 00:39:07;;;;;;;5.57;2.70;;;12.40;82.60;;;;;;5072046;28;20689;-65
2022/05/21 00:41:32;;;;;;;3.70;2.57;;;12.40;82.30;;;;;;5073492;28;20213;-67
2022/05/21 00:44:00;;;;;;;5.47;2.60;;;12.40;83.20;;;;;;5073401;28;20192;-66
2022/05/21 00:46:31;;;;;;;5.83;2.90;;;12.30;81.60;;;;;;5073431;28;20176;-66
2022/05/21 00:49:03;;;;;;;3.63;2.53;;;12.30;83.70;;;;;;5073362;28;20251;-65
2022/05/21 00:51:35;;;;;;;6.10;2.70;;;12.30;83.80;;;;;;5073349;28;20180;-66
2022/05/21 00:54:03;;;;;;;6.20;2.73;;;12.30;80.60;;;;;;5073006;28;20521;-66
2022/05/21 00:56:33;;;;;;;7.53;3.23;;;12.30;81.70;;;;;;5073193;28;20222;-67
2022/05/21 01:01:50;;;;;;;5.83;2.73;;;12.20;84.60;;;;;;5072611;28;20225;-67
2022/05/21 01:04:15;;;;;;;3.70;3.37;;;12.20;85.30;;;;;;5073355;28;20616;-66
2022/05/21 01:06:41;;;;;;;4.77;3.27;;;12.20;83.70;;;;;;5073190;28;20202;-67
2022/05/21 01:09:07;;;;;;;8.43;3.23;;;12.20;83.20;;;;;;5072670;28;20168;-66
2022/05/21 01:11:35;;;;;;;5.33;3.03;;;12.20;83.50;;;;;;5072741;28;20612;-66
2022/05/21 01:14:03;;;;;;;7.83;3.47;;;12.10;85.40;;;;;;5072906;28;20199;-65
2022/05/21 01:16:29;;;;;;;7.10;3.07;;;12.10;85.80;;;;;;5072803;28;20630;-66
2022/05/21 01:18:56;;;;;;;6.27;3.73;;;12.10;89.60;;;;;;5073013;28;20175;-66
2022/05/21 01:21:22;;;;;;;4.83;3.57;;;12.00;89.00;;;;;;5072931;28;20535;-65
2022/05/21 01:23:48;;;;;;;5.83;3.17;;;12.00;89.30;;;;;;5071393;28;20603;-65
2022/05/21 01:26:19;;;;;;;6.27;3.20;;;12.00;90.00;;;;;;5072737;28;20168;-66
2022/05/21 01:28:46;;;;;;;5.53;3.60;;;12.00;89.50;;;;;;5072655;28;20176;-67
2022/05/21 01:31:12;;;;;;;7.63;3.40;;;11.90;90.60;;;;;;5072675;28;20176;-66
2022/05/21 01:33:41;;;;;;;6.90;3.20;;;11.90;90.40;;;;;;5072900;28;20553;-67
2022/05/21 01:36:08;;;;;;;5.17;3.03;;;11.90;90.00;;;;;;5072747;28;20205;-66
2022/05/21 01:38:36;;;;;;;5.53;3.10;;;11.90;90.30;;;;;;5072323;28;20169;-67
2022/05/21 01:41:02;;;;;;;5.63;3.40;;;11.90;89.00;;;;;;5072721;28;20169;-66
2022/05/21 01:46:14;;;;;;;5.03;3.17;;;12.00;88.80;;;;;;5072990;28;20643;-67
2022/05/21 01:48:40;;;;;;;6.53;3.50;;;11.90;89.80;;;;;;5072537;28;20218;-66
2022/05/21 01:51:07;;;;;;;3.77;2.70;;;11.80;90.40;;;;;;5072322;28;20271;-66
2022/05/21 01:53:34;;;;;;;7.33;2.80;;;11.80;91.20;;;;;;5072566;28;20176;-66
2022/05/21 01:56:01;;;;;;;5.60;2.90;;;11.80;91.40;;;;;;5072572;28;20342;-67
2022/05/21 01:58:28;;;;;;;3.17;2.80;;;11.80;90.90;;;;;;5072622;28;20173;-67
2022/05/21 02:00:55;;;;;;;5.87;3.10;;;11.80;90.50;;;;;;5072260;28;20301;-66
2022/05/21 02:03:21;;;;;;;7.13;3.10;;;11.90;90.70;;;;;;5072635;28;20161;-67
2022/05/21 02:05:47;;;;;;;4.03;3.00;;;11.90;87.50;;;;;;5072163;28;20208;-66
2022/05/21 02:08:14;;;;;;;3.83;2.63;;;11.80;89.10;;;;;;5072400;28;20701;-67
2022/05/21 02:10:41;;;;;;;5.93;2.90;;;11.80;88.20;;;;;;5072489;28;20169;-66
2022/05/21 02:13:07;;;;;;;4.53;2.80;;;11.80;88.50;;;;;;5072717;28;20176;-67
2022/05/21 02:15:33;;;;;;;6.90;3.27;;;11.80;87.60;;;;;;5075488;28;20561;-66
2022/05/21 02:17:58;;;;;;;5.57;3.50;;;11.80;89.30;;;;;;5076125;28;20659;-66
2022/05/21 02:20:24;;;;;;;7.07;3.20;;;11.90;88.10;;;;;;5075843;28;20176;-66
2022/05/21 02:22:50;;;;;;;6.13;3.07;;;11.90;88.70;;;;;;5075923;28;20175;-66
2022/05/21 02:25:16;;;;;;;5.07;3.10;;;11.90;88.20;;;;;;5075627;28;20182;-67
2022/05/21 02:27:43;;;;;;;4.20;2.80;;;11.90;89.80;;;;;;5075806;28;20196;-67
2022/05/21 02:30:09;;;;;;;7.87;2.90;;;11.90;88.60;;;;;;5075821;28;20632;-66
2022/05/21 02:32:35;;;;;;;4.80;2.97;;;11.90;87.90;;;;;;5075861;28;20643;-66
2022/05/21 02:35:00;;;;;;;3.43;2.90;;;11.80;89.70;;;;;;5075423;28;20224;-66
2022/05/21 02:40:10;;;;;;;5.53;2.80;;;11.80;90.90;;;;;;5075846;28;20731;-66
2022/05/21 02:42:48;;;;;;;7.43;3.10;;;11.90;91.30;;;;;;5075513;28;20243;-67
2022/05/21 02:45:22;;;;;;;7.13;3.30;;;11.90;91.50;;;;;;5075723;28;20654;-65
2022/05/21 02:47:48;;;;;;;7.97;3.33;;;11.80;92.70;;;;;;5075401;28;20169;-67
2022/05/21 02:50:16;;;;;;;4.23;2.83;;;11.80;93.50;;;;;;5075073;28;20169;-67
2022/05/21 02:52:42;;;;;;;6.00;3.30;;;11.80;95.00;;;;;;5074154;28;20180;-67
2022/05/21 02:55:09;;;;;;;7.47;3.60;;;11.80;95.20;;;;;;5075068;28;20215;-67
2022/05/21 02:57:35;;;;;;;8.43;3.37;;;11.80;96.40;;;;;;5075106;28;20180;-67
2022/05/21 03:00:07;;;;;;;9.73;3.27;;;11.80;96.90;;;;;;5075359;28;20222;-67
2022/05/21 03:02:33;;;;;;;4.80;3.10;;;11.80;97.30;;;;;;5075234;28;20682;-66
2022/05/21 03:04:58;;;;;;;12.93;3.37;;;11.70;98.10;;;;;;5074361;28;20283;-66
2022/05/21 03:07:24;;;;;;;6.93;3.17;;;11.70;99.90;;;;;;5075074;28;20263;-67
2022/05/21 03:12:36;;;;;;;7.77;3.20;;;11.70;99.90;;;;;;5075730;28;20646;-67
2022/05/21 03:15:01;;;;;;;9.10;3.30;;;11.60;99.90;;;;;;5074685;28;20204;-67
2022/05/21 03:17:28;;;;;;;6.57;3.17;;;11.60;99.90;;;;;;5074579;28;20180;-66
2022/05/21 03:19:53;;;;;;;6.93;3.50;;;11.60;99.90;;;;;;5073694;28;20203;-67
2022/05/21 03:22:19;;;;;;;8.77;3.63;;;11.60;99.90;;;;;;5075036;28;20218;-67
2022/05/21 03:24:45;;;;;;;8.73;3.60;;;11.60;99.90;;;;;;5074693;28;20617;-66
2022/05/21 03:27:10;;;;;;;6.70;3.57;;;11.60;99.90;;;;;;5074637;28;20222;-66
2022/05/21 03:29:37;;;;;;;6.20;3.30;;;11.60;99.90;;;;;;5074602;28;20180;-66
2022/05/21 03:32:03;;;;;;;10.30;3.70;;;11.60;99.90;;;;;;5074580;28;20179;-66
2022/05/21 03:34:29;;;;;;;8.23;3.83;;;11.60;99.90;;;;;;5073430;28;20239;-66
2022/05/21 03:36:55;;;;;;;7.67;3.77;;;11.70;99.90;;;;;;5074416;28;20581;-66
2022/05/21 03:39:21;;;;;;;8.10;4.27;;;11.60;99.90;;;;;;5074320;28;20259;-66
2022/05/21 03:41:46;;;;;;;6.30;3.40;;;11.60;99.90;;;;;;5074212;28;20183;-66
2022/05/21 03:44:12;;;;;;;8.47;3.70;;;11.60;99.90;;;;;;5074277;28;20202;-66
2022/05/21 03:46:38;;;;;;;9.60;4.00;;;11.60;99.90;;;;;;5073856;28;20184;-67
2022/05/21 03:49:05;;;;;;;11.67;3.87;;;11.60;99.90;;;;;;5073835;28;20184;-65
2022/05/21 03:51:31;;;;;;;10.03;4.10;;;11.70;99.90;;;;;;5074004;28;20267;-66
2022/05/21 03:53:57;;;;;;;14.17;4.47;;;11.70;99.90;;;;;;5074078;28;20590;-66
2022/05/21 03:56:22;;;;;;;7.20;3.63;;;11.80;99.90;;;;;;5074093;28;20283;-66
2022/05/21 03:58:48;;;;;;;7.57;3.40;;;11.90;99.90;;;;;;5073256;28;20659;-65
2022/05/21 04:01:14;;;;;;;9.30;3.80;;;12.00;99.90;;;;;;5072090;28;20220;-67
2022/05/21 04:03:40;;;;;;;12.97;4.07;;;12.10;99.90;;;;;;5073384;28;20180;-65
2022/05/21 04:06:07;;;;;;;11.50;4.07;;;12.10;99.90;;;;;;5073246;28;20188;-67
2022/05/21 04:08:33;;;;;;;14.50;4.20;;;12.20;99.90;;;;;;5073549;28;20290;-66
2022/05/21 04:10:58;;;;;;;9.60;3.93;;;12.30;99.90;;;;;;5073822;28;20259;-66
2022/05/21 04:13:25;;;;;;;14.53;4.00;;;12.40;99.90;;;;;;5073361;28;20620;-65
2022/05/21 04:15:51;;;;;;;10.23;4.00;;;12.40;99.90;;;;;;5071607;28;20234;-68
2022/05/21 04:18:18;;;;;;;9.00;3.93;;;12.50;99.90;;;;;;5073386;28;20169;-66
2022/05/21 04:20:43;;;;;;;9.07;3.57;;;12.50;99.90;;;;;;5073096;28;20172;-65
2022/05/21 04:23:09;;;;;;;7.70;3.63;;;12.60;99.90;;;;;;5073284;28;20180;-66
2022/05/21 04:25:35;;;;;;;12.67;3.73;;;12.70;99.60;;;;;;5073670;28;20635;-66
2022/05/21 04:28:01;;;;;;;9.53;3.77;;;12.80;98.70;;;;;;5072493;28;20270;-67
2022/05/21 04:30:29;;;;;;;8.90;4.10;;;12.90;97.20;;;;;;5073593;28;20591;-65
2022/05/21 04:32:58;;;;;;;15.67;4.30;;;12.90;94.40;;;;;;5073221;28;20179;-65
2022/05/21 04:36:17;;;;;;;13.30;4.20;;;12.90;94.50;;;;;;5072892;28;20239;-67
2022/05/21 04:38:11;;;;;;;10.00;3.93;;;13.00;94.40;;;;;;5072549;28;20540;-66
2022/05/21 04:40:37;;;;;;;11.70;3.90;;;13.00;91.90;;;;;;5072809;28;20176;-67
2022/05/21 04:43:02;;;;;;;8.20;3.57;;;13.00;93.10;;;;;;5072875;28;20172;-66
2022/05/21 04:45:28;;;;;;;10.73;4.40;;;13.00;94.50;;;;;;5072779;28;20199;-65
2022/05/21 04:47:53;;;;;;;13.37;4.17;;;13.20;91.70;;;;;;5072673;28;20173;-66
2022/05/21 04:50:19;;;;;;;12.33;4.03;;;13.20;89.80;;;;;;5072581;28;20215;-66
2022/05/21 04:52:44;;;;;;;12.00;4.17;;;13.30;87.90;;;;;;5073241;28;20237;-66
2022/05/21 04:55:11;;;;;;;11.30;3.90;;;13.40;84.40;;;;;;5072570;28;20208;-66
2022/05/21 04:57:36;;;;;;;13.17;4.10;;;13.40;81.30;;;;;;5072028;28;20176;-66
2022/05/21 05:00:05;;;;;;;12.67;4.10;;;13.40;82.20;;;;;;5072658;28;20260;-66
2022/05/21 05:02:31;;;;;;;12.83;4.13;;;13.50;79.00;;;;;;5072197;28;20216;-66
2022/05/21 05:04:57;;;;;;;8.40;3.17;;;13.60;74.00;;;;;;5072515;28;20651;-66
2022/05/21 05:07:23;;;;;;;7.90;3.40;;;13.70;71.10;;;;;;5072915;28;20191;-67
2022/05/21 05:09:49;;;;;;;12.47;3.73;;;13.80;73.50;;;;;;5072528;28;20275;-67
2022/05/21 05:12:16;;;;;;;11.67;3.63;;;13.90;68.00;;;;;;5072459;28;20317;-65
2022/05/21 05:14:42;;;;;;;8.10;3.03;;;14.00;59.50;;;;;;5072247;28;20353;-66
2022/05/21 05:17:11;;;;;;;8.40;3.30;;;14.00;60.50;;;;;;5072751;28;20186;-67
2022/05/21 05:19:37;;;;;;;11.77;4.40;;;14.00;59.30;;;;;;5072675;28;20713;-66
2022/05/21 05:22:03;;;;;;;11.77;4.27;;;14.20;60.00;;;;;;5072469;28;20173;-66
2022/05/21 05:24:29;;;;;;;12.07;3.67;;;15.10;39.80;;;;;;5072927;28;20214;-66
2022/05/21 05:26:55;;;;;;;11.03;3.10;;;16.00;1.00;;;;;;5072672;28;20246;-67
2022/05/21 05:29:21;;;;;;;11.83;3.53;;;17.20;1.00;;;;;;5072280;28;20261;-67
2022/05/21 05:31:46;;;;;;;9.13;3.30;;;18.40;1.00;;;;;;5072951;28;20204;-67
2022/05/21 05:34:12;;;;;;;9.98;3.15;;;19.80;99.90;;;;;;5072475;28;20177;-67
2022/05/21 05:36:38;;;;;;;9.13;3.28;;;21.10;99.90;;;;;;5072694;28;20185;-68
2022/05/21 05:39:04;;;;;;;8.57;2.90;;;22.50;1.00;;;;;;5072721;28;20165;-68
2022/05/21 05:41:30;;;;;;;7.20;3.05;;;23.30;1.00;;;;;;5072500;28;20206;-67
2022/05/21 05:43:57;;;;;;;8.15;3.15;;;24.20;35.30;;;;;;5070730;28;20172;-66
2022/05/21 05:46:23;;;;;;;11.30;3.42;;;25.10;1.00;;;;;;5072537;28;20180;-67
2022/05/21 05:48:49;;;;;;;10.43;3.72;;;24.40;1.00;;;;;;5072595;28;20168;-67
2022/05/21 05:51:16;;;;;;;12.73;3.38;;;23.30;1.00;;;;;;5076301;28;20218;-66
2022/05/21 05:53:43;;;;;;;14.20;4.07;;;23.00;99.90;;;;;;5076154;28;20173;-66
2022/05/21 05:56:09;;;;;;;10.68;3.55;;;22.40;99.90;;;;;;5076095;28;20357;-65
2022/05/21 06:01:22;;;;;;;13.80;3.65;;;21.80;99.90;;;;;;5075878;28;20354;-66
2022/05/21 06:03:48;;;;;;;9.20;3.25;;;22.70;99.90;;;;;;5075953;28;20640;-67
2022/05/21 06:06:14;;;;;;;7.18;3.20;;;22.30;99.90;;;;;;5075441;28;20644;-66
2022/05/21 06:08:40;;;;;;;6.97;3.08;;;21.80;99.90;;;;;;5075908;28;20176;-67
2022/05/21 06:11:06;;;;;;;8.02;3.33;;;22.50;1.00;;;;;;5075915;28;20160;-67
2022/05/21 06:13:33;;;;;;;12.35;3.78;;;21.30;95.00;;;;;;5075476;28;20173;-67
2022/05/21 06:15:59;;;;;;;15.40;4.28;;;20.60;1.00;;;;;;5075618;28;20204;-66
2022/05/21 06:18:25;;;;;;;8.98;3.30;;;20.50;99.90;;;;;;5075714;28;20221;-66
2022/05/21 06:20:51;;;;;;;9.80;3.58;;;21.50;1.00;;;;;;5075927;28;20502;-66
2022/05/21 06:23:16;;;;;;;11.18;3.70;;;22.10;1.00;;;;;;5075835;28;20518;-66
2022/05/21 06:25:42;;;;;;;11.55;4.03;;;21.60;13.80;;;;;;5076073;28;20165;-67
2022/05/21 06:28:08;;;;;;;10.80;3.92;;;20.60;1.00;;;;;;5075136;28;20664;-66
2022/05/21 06:30:36;;;;;;;9.63;3.85;;;20.60;1.00;;;;;;5075373;28;20172;-66
2022/05/21 06:33:12;;;;;;;11.32;4.13;;;20.70;99.90;;;;;;5075234;28;20173;-68
2022/05/21 06:35:38;;;;;;;14.70;4.35;;;20.90;99.90;;;;;;5075117;28;20208;-65
2022/05/21 06:38:04;;;;;;;11.90;4.40;;;20.50;99.90;;;;;;5075528;28;20169;-67
2022/05/21 06:40:29;;;;;;;10.13;3.90;;;20.50;60.40;;;;;;5075338;28;20175;-66
2022/05/21 06:42:55;;;;;;;12.02;4.25;;;20.30;1.00;;;;;;5075121;28;20168;-66
2022/05/21 06:45:20;;;;;;;11.60;4.85;;;20.30;1.00;;;;;;5075043;28;20176;-67
2022/05/21 06:47:46;;;;;;;13.50;4.95;;;21.30;99.90;;;;;;5075215;28;20319;-67
2022/05/21 06:50:12;;;;;;;11.77;4.88;;;22.80;99.90;;;;;;5075293;28;20171;-67
2022/05/21 06:52:39;;;;;;;9.77;4.55;;;23.80;1.00;;;;;;5075479;28;20169;-66
2022/05/21 06:55:05;;;;;;;10.05;4.45;;;24.20;1.00;;;;;;5074757;28;20239;-68
2022/05/21 06:57:31;;;;;;;10.98;4.85;;;24.70;1.00;;;;;;5074130;28;20218;-67
2022/05/21 06:59:57;;;;;;;13.20;5.63;;;24.00;1.00;;;;;;5074838;28;20173;-67
2022/05/21 07:02:24;;;;;;;12.55;5.35;;;23.90;1.00;;;;;;5074838;28;20220;-68
2022/05/21 07:07:43;;;;;;;9.55;4.25;;;24.40;1.00;;;;;;5074642;28;20204;-67
2022/05/21 07:10:17;;;;;;;9.68;4.72;;;23.70;1.00;;;;;;5074278;28;20212;-65
2022/05/21 07:12:43;;;;;;;15.82;4.80;;;22.40;1.00;;;;;;5074917;28;20172;-65
2022/05/21 07:15:09;;;;;;;11.95;4.97;;;21.90;99.90;;;;;;5074633;28;20258;-66
2022/05/21 07:17:35;;;;;;;10.68;4.60;;;21.20;99.90;;;;;;5074317;28;20172;-66
2022/05/21 07:20:10;;;;;;;12.10;5.00;;;21.50;99.90;;;;;;5074281;28;20700;-66
2022/05/21 07:22:40;;;;;;;11.85;4.55;;;21.70;1.00;;;;;;5073483;28;20631;-66
2022/05/21 07:25:07;;;;;;;11.85;4.90;;;21.50;1.00;;;;;;5074218;28;20585;-66
2022/05/21 07:27:32;;;;;;;8.93;4.85;;;21.60;1.00;;;;;;5074197;28;20172;-65
2022/05/21 07:29:58;;;;;;;12.55;4.75;;;22.00;42.40;;;;;;5073681;28;20653;-66
2022/05/21 07:32:27;;;;;;;12.57;4.97;;;22.90;99.90;;;;;;5072654;28;20161;-66
2022/05/21 07:35:16;;;;;;;12.77;4.82;;;23.00;24.60;;;;;;5073237;28;20315;-68
2022/05/21 07:37:41;;;;;;;8.95;4.38;;;23.60;1.00;;;;;;5068271;28;20172;-67
2022/05/21 07:40:09;;;;;;;10.13;4.35;;;24.10;1.00;;;;;;5073476;28;20391;-67
2022/05/21 07:42:36;;;;;;;9.23;4.03;;;24.60;1.00;;;;;;5074283;28;20184;-67
2022/05/21 07:45:02;;;;;;;10.00;3.65;;;24.90;1.00;;;;;;5074296;28;20177;-67
2022/05/21 07:47:28;;;;;;;9.52;3.90;;;23.70;1.00;;;;;;5073547;28;20302;-66
2022/05/21 07:49:56;;;;;;;10.10;3.67;;;24.40;1.00;;;;;;5072672;28;20222;-67
2022/05/21 07:52:24;;;;;;;10.48;3.78;;;25.00;99.90;;;;;;5074033;28;20169;-67
2022/05/21 07:54:49;;;;;;;7.13;3.30;;;25.10;99.90;;;;;;5073369;28;20679;-67
2022/05/21 07:57:15;;;;;;;7.15;3.78;;;25.40;99.90;;;;;;5073376;28;20192;-68
2022/05/21 07:59:41;;;;;;;8.40;3.72;;;24.50;99.90;;;;;;5073002;28;20165;-67
2022/05/21 08:02:12;;;;;;;10.32;3.72;;;23.90;1.00;;;;;;5073645;28;20255;-67
2022/05/21 08:04:38;;;;;;;8.85;3.40;;;25.00;99.90;;;;;;5073753;28;20646;-67
2022/05/21 08:07:04;;;;;;;12.57;4.03;;;25.50;99.90;;;;;;5072661;28;20176;-68
2022/05/21 08:09:31;;;;;;;10.18;3.67;;;25.20;99.90;;;;;;5073158;28;20220;-67
2022/05/21 08:11:56;;;;;;;8.60;3.47;;;25.80;99.90;;;;;;5072058;28;20204;-68
2022/05/21 08:14:23;;;;;;;5.55;3.10;;;27.00;99.90;;;;;;5073728;28;20180;-68
2022/05/21 08:16:49;;;;;;;7.60;3.72;;;26.60;99.90;;;;;;5071722;28;20492;-67
2022/05/21 08:19:15;;;;;;;7.00;3.20;;;27.10;99.90;;;;;;5073432;28;20202;-67
2022/05/21 08:21:41;;;;;;;9.50;3.47;;;27.50;99.90;;;;;;5073470;28;20177;-66
2022/05/21 08:26:57;;;;;;;5.40;2.90;;;27.60;99.90;;;;;;5073441;28;20200;-68
2022/05/21 08:29:43;;;;;;;10.75;3.10;;;27.10;99.90;;;;;;5073604;28;20639;-68
2022/05/21 08:32:13;;;;;;;7.28;2.67;;;24.50;99.90;;;;;;5072745;28;20177;-67
2022/05/21 08:34:38;;;;;;;9.75;3.20;;;23.20;99.90;;;;;;5073124;28;20273;-67
2022/05/21 08:37:04;;;;;;;9.48;3.17;;;22.80;99.90;;;;;;5072383;28;20627;-68
2022/05/21 08:39:30;;;;;;;8.45;3.22;;;22.40;1.00;;;;;;5073219;28;20168;-67
2022/05/21 08:41:58;;;;;;;6.05;2.83;;;22.40;1.00;;;;;;5073038;28;20196;-67
2022/05/21 08:44:33;;;;;;;6.18;2.70;;;22.30;1.00;;;;;;5073004;28;20161;-67
2022/05/21 08:47:04;;;;;;;9.57;3.28;;;22.40;1.00;;;;;;5072932;28;20627;-67
2022/05/21 08:49:59;;;;;;;8.85;2.88;;;23.90;99.90;;;;;;5072929;28;20172;-68
2022/05/21 08:52:46;;;;;;;8.63;3.17;;;24.50;99.90;;;;;;5070628;28;20180;-68
2022/05/21 08:55:17;;;;;;;10.23;3.45;;;24.20;99.90;;;;;;5073099;28;20698;-67
2022/05/21 08:57:52;;;;;;;8.65;3.08;;;25.20;99.90;;;;;;5072751;28;20620;-67
2022/05/21 09:00:35;;;;;;;8.07;2.97;;;25.30;99.90;;;;;;5072669;28;20172;-68
2022/05/21 09:03:04;;;;;;;9.27;3.33;;;26.00;99.90;;;;;;5072837;28;20664;-67
2022/05/21 09:05:30;;;;;;;9.73;3.30;;;25.50;99.90;;;;;;5072783;28;20212;-67
2022/05/21 09:08:02;;;;;;;7.68;2.97;;;25.50;99.90;;;;;;5071571;28;20260;-67
2022/05/21 09:10:33;;;;;;;10.13;2.90;;;24.90;99.90;;;;;;5072594;28;20207;-68
2022/05/21 09:13:05;;;;;;;7.00;2.80;;;25.70;99.90;;;;;;5072922;28;20173;-68
2022/05/21 09:18:15;;;;;;;6.72;2.78;;;28.10;99.90;;;;;;5073435;28;20681;-67
2022/05/21 09:20:59;;;;;;;6.40;3.05;;;28.70;99.90;;;;;;5072930;28;20168;-67
2022/05/21 09:23:25;;;;;;;7.55;2.78;;;27.50;99.90;;;;;;5073759;28;20172;-67
2022/05/21 09:26:08;;;;;;;7.90;2.97;;;27.40;99.90;;;;;;5076678;28;20172;-67
2022/05/21 09:28:37;;;;;;;6.22;2.85;;;26.90;99.90;;;;;;5076553;28;20259;-67
2022/05/21 09:31:05;;;;;;;8.30;2.92;;;25.50;99.90;;;;;;5076917;28;20169;-67
2022/05/21 09:33:37;;;;;;;8.60;2.95;;;25.80;99.90;;;;;;5076262;28;20221;-68
2022/05/21 09:36:04;;;;;;;8.82;2.92;;;26.60;99.90;;;;;;5076287;28;20262;-67
2022/05/21 09:38:32;;;;;;;8.02;2.90;;;27.00;99.90;;;;;;5076224;28;20216;-68
2022/05/21 09:41:11;;;;;;;7.43;2.90;;;27.80;99.90;;;;;;5076337;28;20196;-67
2022/05/21 09:46:31;;;;;;;6.65;3.20;;;25.40;99.90;;;;;;5076365;28;20210;-67
2022/05/21 09:49:15;;;;;;;7.53;2.80;;;25.00;99.90;;;;;;5075869;28;20173;-67
2022/05/21 09:51:51;;;;;;;10.13;3.28;;;25.50;99.90;;;;;;5076072;28;20628;-66
2022/05/21 09:54:26;;;;;;;5.68;2.70;;;26.10;99.90;;;;;;5075915;28;20186;-67
2022/05/21 09:56:54;;;;;;;5.30;2.53;;;26.00;99.90;;;;;;5075799;28;20180;-66
2022/05/21 09:59:23;;;;;;;6.95;3.00;;;25.20;99.90;;;;;;5075169;28;20169;-66
2022/05/21 10:01:56;;;;;;;10.07;2.90;;;24.50;99.90;;;;;;5075662;28;20224;-66
2022/05/21 10:04:48;;;;;;;7.90;3.03;;;24.70;99.90;;;;;;5075319;28;20576;-67
2022/05/21 10:10:58;;;;;;;8.20;2.85;;;24.20;99.90;;;;;;5075761;28;20643;-67
2022/05/21 10:13:27;;;;;;;6.53;2.80;;;24.70;99.90;;;;;;5074694;28;20512;-68
2022/05/21 10:16:18;;;;;;;7.60;2.67;;;26.10;99.90;;;;;;5075323;28;20553;-68
2022/05/21 10:18:50;;;;;;;7.55;2.63;;;25.70;99.90;;;;;;5074881;28;20310;-68
2022/05/21 10:21:21;;;;;;;8.77;2.38;;;26.70;99.90;;;;;;5075704;28;20164;-68
2022/05/21 10:23:52;;;;;;;5.70;2.53;;;26.30;99.90;;;;;;5075714;28;20271;-68
2022/05/21 10:27:00;;;;;;;8.10;2.30;;;26.80;99.90;;;;;;5075549;28;20184;-68
2022/05/21 10:30:03;;;;;;;7.40;2.70;;;27.10;99.90;;;;;;5075805;28;20168;-68
2022/05/21 10:32:47;;;;;;;4.65;1.98;;;27.40;99.90;;;;;;5075663;28;20164;-67
2022/05/21 10:35:19;;;;;;;4.13;2.00;;;27.80;99.90;;;;;;5074290;28;20253;-68
2022/05/21 10:38:12;;;;;;;3.28;1.85;;;27.90;99.90;;;;;;5075754;28;20175;-68
2022/05/21 10:40:52;;;;;;;5.38;1.80;;;26.60;99.90;;;;;;5075589;28;20172;-67
2022/05/21 10:43:48;;;;;;;3.78;2.00;;;26.80;99.90;;;;;;5075037;28;20168;-68
2022/05/21 10:46:38;;;;;;;9.25;2.60;;;27.00;99.90;;;;;;5075624;28;20180;-68
2022/05/21 10:49:31;;;;;;;5.05;2.00;;;27.90;99.90;;;;;;5074772;28;20244;-67
2022/05/21 10:52:19;;;;;;;5.20;2.17;;;28.60;99.90;;;;;;5074718;28;20196;-66
2022/05/21 10:55:04;;;;;;;4.85;2.08;;;28.10;99.90;;;;;;5074586;28;20224;-67
2022/05/21 10:57:45;;;;;;;4.50;2.35;;;27.90;99.90;;;;;;5074733;28;20215;-66
2022/05/21 11:00:33;;;;;;;4.40;2.10;;;28.00;99.90;;;;;;5075170;28;20200;-69
2022/05/21 11:03:17;;;;;;;5.93;2.20;;;27.40;99.90;;;;;;5074632;28;20176;-68
2022/05/21 11:06:00;;;;;;;6.85;2.25;;;27.40;99.90;;;;;;5074604;28;20188;-67
2022/05/21 11:08:29;;;;;;;4.43;2.13;;;28.00;99.90;;;;;;5074608;28;20544;-68
2022/05/21 11:11:05;;;;;;;5.55;2.55;;;28.00;99.90;;;;;;5074182;28;20164;-67
2022/05/21 11:13:42;;;;;;;5.68;2.28;;;28.00;99.90;;;;;;5074565;28;20718;-67
2022/05/21 11:16:18;;;;;;;5.90;2.33;;;27.90;99.90;;;;;;5074546;28;20208;-68
2022/05/21 11:18:55;;;;;;;6.70;2.60;;;27.40;99.90;;;;;;5074080;28;20661;-68
2022/05/21 11:21:43;;;;;;;5.38;2.30;;;26.50;99.90;;;;;;5074510;28;20191;-67
2022/05/21 11:24:31;;;;;;;6.32;2.20;;;26.30;99.90;;;;;;5073246;28;20168;-67
2022/05/21 11:26:59;;;;;;;4.63;2.10;;;25.90;99.90;;;;;;5074238;28;20256;-66
2022/05/21 11:29:42;;;;;;;4.65;2.08;;;26.20;99.90;;;;;;5073783;28;20173;-67
2022/05/21 11:37:55;;;;;;;4.97;1.90;;;25.80;99.90;;;;;;5073906;28;20172;-67
2022/05/21 11:41:24;;;;;;;6.93;2.40;;;25.80;99.90;;;;;;5073533;28;20177;-67
2022/05/21 11:47:06;;;;;;;5.80;2.13;;;25.70;99.90;;;;;;5073249;28;20217;-65
2022/05/21 11:49:34;;;;;;;3.50;2.00;;;24.40;99.90;;;;;;5072833;28;20581;-67
2022/05/21 11:52:26;;;;;;;4.97;2.00;;;24.40;99.90;;;;;;5071641;28;20177;-67
2022/05/21 11:54:54;;;;;;;4.90;2.20;;;24.40;99.90;;;;;;5073288;28;20243;-65
2022/05/21 11:57:33;;;;;;;5.60;2.55;;;24.50;99.90;;;;;;5071771;28;20260;-68
2022/05/21 12:00:18;;;;;;;4.22;2.00;;;24.50;99.90;;;;;;5072884;28;20168;-66
2022/05/21 12:02:58;;;;;;;3.47;2.10;;;23.80;99.90;;;;;;5073093;28;20283;-68
2022/05/21 12:05:33;;;;;;;5.20;2.03;;;23.90;99.90;;;;;;5073051;28;20186;-67
2022/05/21 12:08:23;;;;;;;4.07;1.80;;;24.10;99.90;;;;;;5073060;28;20168;-67
2022/05/21 12:11:13;;;;;;;3.45;1.45;;;23.60;99.90;;;;;;5072616;28;20266;-67
2022/05/21 12:13:50;;;;;;;4.32;2.00;;;23.00;99.90;;;;;;5073099;28;20173;-67
2022/05/21 12:16:21;;;;;;;3.92;2.17;;;23.00;99.90;;;;;;5072806;28;20222;-66
2022/05/21 12:18:57;;;;;;;5.43;2.20;;;22.90;99.90;;;;;;5072180;28;20193;-66
2022/05/21 12:21:36;;;;;;;6.70;2.28;;;22.80;99.90;;;;;;5072779;28;20161;-66
2022/05/21 12:24:03;;;;;;;3.30;2.10;;;22.70;99.90;;;;;;5072994;28;20624;-67
2022/05/21 12:26:30;;;;;;;6.10;2.47;;;22.00;99.90;;;;;;5071602;28;20647;-66
2022/05/21 12:28:56;;;;;;;5.80;2.35;;;22.20;99.90;;;;;;5072500;28;20164;-67
2022/05/21 12:31:28;;;;;;;4.78;2.20;;;22.50;99.90;;;;;;5072479;28;20252;-66
2022/05/21 12:34:12;;;;;;;6.03;2.00;;;22.60;99.90;;;;;;5072075;28;20192;-67
2022/05/21 12:37:05;;;;;;;5.60;2.10;;;23.10;99.90;;;;;;5071657;28;20683;-66
2022/05/21 12:39:59;;;;;;;5.07;2.08;;;23.10;99.90;;;;;;5072348;28;20636;-66
2022/05/21 12:42:31;;;;;;;3.88;1.67;;;22.90;99.90;;;;;;5072310;28;20161;-66
2022/05/21 12:44:57;;;;;;;6.68;1.67;;;22.90;99.90;;;;;;5071927;28;20266;-67
2022/05/21 12:47:32;;;;;;;5.75;1.90;;;23.00;99.90;;;;;;5072129;28;20236;-69
2022/05/21 12:50:00;;;;;;;5.07;1.75;;;23.20;99.90;;;;;;5072491;28;20241;-66
2022/05/21 12:52:51;;;;;;;4.95;1.58;;;23.30;99.90;;;;;;5071832;28;20553;-67
2022/05/21 12:55:25;;;;;;;5.50;1.90;;;22.80;99.90;;;;;;5067466;28;20293;-66
2022/05/21 12:57:56;;;;;;;5.15;1.92;;;22.50;99.90;;;;;;5071162;28;20187;-67
2022/05/21 13:00:24;;;;;;;4.80;1.90;;;22.40;99.90;;;;;;5072160;28;20176;-69
2022/05/21 13:02:53;;;;;;;2.70;1.50;;;22.80;99.90;;;;;;5072310;28;20181;-66
2022/05/21 13:05:26;;;;;;;3.15;1.90;;;23.10;99.90;;;;;;5071552;28;20188;-67
2022/05/21 13:07:56;;;;;;;5.00;1.73;;;23.20;99.90;;;;;;5072295;28;20169;-68
2022/05/21 13:10:26;;;;;;;6.38;2.10;;;23.40;99.90;;;;;;5072269;28;20209;-68
2022/05/21 13:13:03;;;;;;;3.53;1.80;;;23.50;99.90;;;;;;5072089;28;20164;-68
2022/05/21 13:15:33;;;;;;;4.68;2.00;;;23.60;99.90;;;;;;5072413;28;20211;-67
2022/05/21 13:18:17;;;;;;;2.97;1.63;;;23.30;99.90;;;;;;5072019;28;20218;-67
2022/05/21 13:20:57;;;;;;;3.80;1.60;;;22.80;99.90;;;;;;5070989;28;20170;-67
2022/05/21 13:23:32;;;;;;;4.55;1.65;;;22.60;99.90;;;;;;5072366;28;20164;-67
2022/05/21 13:25:58;;;;;;;3.88;1.92;;;22.80;99.90;;;;;;5072060;28;20187;-68
2022/05/21 13:28:26;;;;;;;3.53;1.65;;;23.10;99.90;;;;;;5071609;28;20172;-66
2022/05/21 13:30:52;;;;;;;3.30;1.83;;;23.20;99.90;;;;;;5072740;28;20632;-67
2022/05/21 13:33:49;;;;;;;5.10;1.92;;;23.10;99.90;;;;;;5072701;28;20222;-67
2022/05/21 13:36:16;;;;;;;5.40;1.98;;;22.70;99.90;;;;;;5072004;28;20283;-68
2022/05/21 13:38:46;;;;;;;3.65;1.80;;;22.70;99.90;;;;;;5072560;28;20639;-67